sensor_id;sensor_type;location;lat;lon;timestamp;pressure;altitude;pressure_sealevel;temperature;humidity
59274;BME280;45044;41.572;24.730;2023-05-01T00:00:27;91337.06;;;4.32;100.00
59274;BME280;45044;41.572;24.730;2023-05-01T00:02:54;91332.41;;;4.38;100.00
59274;BME280;45044;41.572;24.730;2023-05-01T00:05:20;91348.38;;;4.53;100.00
59274;BME280;45044;41.572;24.730;2023-05-01T00:07:47;91353.59;;;4.53;100.00
59274;BME280;45044;41.572;24.730;2023-05-01T00:10:15;91340.19;;;4.38;100.00
59274;BME280;45044;41.572;24.730;2023-05-01T00:12:42;91335.78;;;4.55;100.00
59274;BME280;45044;41.572;24.730;2023-05-01T00:15:09;91344.59;;;4.50;100.00
59274;BME280;45044;41.572;24.730;2023-05-01T00:17:36;91341.56;;;4.32;100.00
59274;BME280;45044;41.572;24.730;2023-05-01T00:20:04;91323.97;;;4.29;100.00
59274;BME280;45044;41.572;24.730;2023-05-01T00:22:31;91328.03;;;4.42;100.00
59274;BME280;45044;41.572;24.730;2023-05-01T00:24:57;91329.53;;;4.43;100.00
59274;BME280;45044;41.572;24.730;2023-05-01T00:27:24;91328.88;;;4.30;100.00
59274;BME280;45044;41.572;24.730;2023-05-01T00:29:51;91329.84;;;4.26;100.00
59274;BME280;45044;41.572;24.730;2023-05-01T00:32:17;91340.63;;;4.40;100.00
59274;BME280;45044;41.572;24.730;2023-05-01T00:34:45;91335.09;;;4.42;100.00
59274;BME280;45044;41.572;24.730;2023-05-01T00:37:13;91338.75;;;4.25;100.00
59274;BME280;45044;41.572;24.730;2023-05-01T00:39:40;91332.47;;;4.26;100.00
59274;BME280;45044;41.572;24.730;2023-05-01T00:42:07;91337.16;;;4.36;100.00
59274;BME280;45044;41.572;24.730;2023-05-01T00:44:34;91330.13;;;4.37;100.00
59274;BME280;45044;41.572;24.730;2023-05-01T00:47:01;91283.66;;;4.06;100.00
59274;BME280;45044;41.572;24.730;2023-05-01T00:49:28;91319.81;;;4.40;100.00
59274;BME280;45044;41.572;24.730;2023-05-01T00:51:54;91331.75;;;4.41;100.00
59274;BME280;45044;41.572;24.730;2023-05-01T00:54:21;91331.16;;;4.48;100.00
59274;BME280;45044;41.572;24.730;2023-05-01T00:56:51;91323.50;;;4.39;100.00
59274;BME280;45044;41.572;24.730;2023-05-01T00:59:18;91321.53;;;4.20;100.00
59274;BME280;45044;41.572;24.730;2023-05-01T01:01:45;91334.50;;;4.04;100.00
59274;BME280;45044;41.572;24.730;2023-05-01T01:04:12;91341.28;;;3.92;100.00
59274;BME280;45044;41.572;24.730;2023-05-01T01:07:02;91341.50;;;3.75;100.00
59274;BME280;45044;41.572;24.730;2023-05-01T01:12:31;91344.66;;;4.09;100.00
59274;BME280;45044;41.572;24.730;2023-05-01T01:17:47;91330.63;;;3.98;100.00
59274;BME280;45044;41.572;24.730;2023-05-01T01:20:33;91335.16;;;4.01;100.00
59274;BME280;45044;41.572;24.730;2023-05-01T01:36:40;91341.59;;;4.19;100.00
59274;BME280;45044;41.572;24.730;2023-05-01T01:39:13;91339.84;;;4.24;100.00
59274;BME280;45044;41.572;24.730;2023-05-01T01:41:46;91338.56;;;4.17;100.00
59274;BME280;45044;41.572;24.730;2023-05-01T01:44:21;91348.00;;;3.81;100.00
59274;BME280;45044;41.572;24.730;2023-05-01T01:46:50;91334.41;;;4.00;100.00
59274;BME280;45044;41.572;24.730;2023-05-01T01:49:24;91328.13;;;4.01;100.00
59274;BME280;45044;41.572;24.730;2023-05-01T01:51:52;91332.31;;;4.06;100.00
59274;BME280;45044;41.572;24.730;2023-05-01T01:57:13;91324.31;;;3.99;100.00
59274;BME280;45044;41.572;24.730;2023-05-01T01:59:43;91333.28;;;3.85;100.00
59274;BME280;45044;41.572;24.730;2023-05-01T02:02:10;91313.94;;;3.57;100.00
59274;BME280;45044;41.572;24.730;2023-05-01T02:04:41;91329.56;;;3.86;100.00
59274;BME280;45044;41.572;24.730;2023-05-01T02:07:09;91329.97;;;4.01;100.00
59274;BME280;45044;41.572;24.730;2023-05-01T02:09:38;91319.22;;;4.02;100.00
59274;BME280;45044;41.572;24.730;2023-05-01T02:12:08;91337.81;;;4.17;100.00
59274;BME280;45044;41.572;24.730;2023-05-01T02:14:37;91337.47;;;4.18;100.00
59274;BME280;45044;41.572;24.730;2023-05-01T02:17:05;91334.03;;;4.14;100.00
59274;BME280;45044;41.572;24.730;2023-05-01T02:19:33;91329.66;;;3.90;100.00
59274;BME280;45044;41.572;24.730;2023-05-01T02:22:01;91328.13;;;3.60;100.00
59274;BME280;45044;41.572;24.730;2023-05-01T02:24:29;91346.38;;;3.76;100.00
59274;BME280;45044;41.572;24.730;2023-05-01T02:27:06;91338.19;;;3.74;100.00
59274;BME280;45044;41.572;24.730;2023-05-01T02:29:34;91343.78;;;3.89;100.00
59274;BME280;45044;41.572;24.730;2023-05-01T02:32:01;91337.94;;;3.79;100.00
59274;BME280;45044;41.572;24.730;2023-05-01T02:34:29;91346.88;;;3.94;100.00
59274;BME280;45044;41.572;24.730;2023-05-01T02:36:55;91342.53;;;3.99;100.00
59274;BME280;45044;41.572;24.730;2023-05-01T02:39:22;91348.28;;;4.04;100.00
59274;BME280;45044;41.572;24.730;2023-05-01T02:41:51;91350.09;;;4.04;100.00
59274;BME280;45044;41.572;24.730;2023-05-01T02:44:21;91347.22;;;3.93;100.00
59274;BME280;45044;41.572;24.730;2023-05-01T02:46:51;91355.88;;;3.97;100.00
59274;BME280;45044;41.572;24.730;2023-05-01T02:49:19;91361.09;;;3.97;100.00
59274;BME280;45044;41.572;24.730;2023-05-01T02:51:47;91360.16;;;3.77;100.00
59274;BME280;45044;41.572;24.730;2023-05-01T02:54:15;91317.66;;;3.31;100.00
59274;BME280;45044;41.572;24.730;2023-05-01T02:56:42;91357.78;;;3.71;100.00
59274;BME280;45044;41.572;24.730;2023-05-01T02:59:09;91362.31;;;3.75;100.00
59274;BME280;45044;41.572;24.730;2023-05-01T03:01:36;91355.81;;;3.81;100.00
59274;BME280;45044;41.572;24.730;2023-05-01T03:04:03;91339.38;;;3.64;100.00
59274;BME280;45044;41.572;24.730;2023-05-01T03:06:30;91352.34;;;3.77;100.00
59274;BME280;45044;41.572;24.730;2023-05-01T03:08:57;91351.28;;;3.78;100.00
59274;BME280;45044;41.572;24.730;2023-05-01T03:11:24;91356.47;;;3.78;100.00
59274;BME280;45044;41.572;24.730;2023-05-01T03:13:50;91363.19;;;3.79;100.00
59274;BME280;45044;41.572;24.730;2023-05-01T03:16:17;91365.03;;;3.78;100.00
59274;BME280;45044;41.572;24.730;2023-05-01T03:18:44;91356.72;;;3.47;100.00
59274;BME280;45044;41.572;24.730;2023-05-01T03:21:11;91363.00;;;3.59;100.00
59274;BME280;45044;41.572;24.730;2023-05-01T03:23:38;91359.94;;;3.69;100.00
59274;BME280;45044;41.572;24.730;2023-05-01T03:26:05;91366.44;;;3.76;100.00
59274;BME280;45044;41.572;24.730;2023-05-01T03:28:33;91367.84;;;3.73;100.00
59274;BME280;45044;41.572;24.730;2023-05-01T03:31:00;91369.91;;;3.67;100.00
59274;BME280;45044;41.572;24.730;2023-05-01T03:33:26;91376.91;;;3.51;100.00
59274;BME280;45044;41.572;24.730;2023-05-01T03:36:03;91366.44;;;3.76;100.00
59274;BME280;45044;41.572;24.730;2023-05-01T03:38:31;91380.81;;;3.86;100.00
59274;BME280;45044;41.572;24.730;2023-05-01T03:40:58;91368.16;;;3.84;100.00
59274;BME280;45044;41.572;24.730;2023-05-01T03:43:25;91375.72;;;3.89;100.00
59274;BME280;45044;41.572;24.730;2023-05-01T03:45:52;91365.25;;;3.73;100.00
59274;BME280;45044;41.572;24.730;2023-05-01T03:48:19;91380.31;;;3.67;100.00
59274;BME280;45044;41.572;24.730;2023-05-01T03:50:46;91383.56;;;3.64;100.00
59274;BME280;45044;41.572;24.730;2023-05-01T03:53:13;91378.81;;;3.66;100.00
59274;BME280;45044;41.572;24.730;2023-05-01T03:55:40;91374.16;;;3.59;100.00
59274;BME280;45044;41.572;24.730;2023-05-01T03:58:07;91390.28;;;3.78;100.00
59274;BME280;45044;41.572;24.730;2023-05-01T04:00:36;91391.75;;;3.91;100.00
59274;BME280;45044;41.572;24.730;2023-05-01T04:03:03;91389.94;;;3.92;100.00
59274;BME280;45044;41.572;24.730;2023-05-01T04:05:31;91404.44;;;3.93;100.00
59274;BME280;45044;41.572;24.730;2023-05-01T04:07:59;91396.78;;;3.71;100.00
59274;BME280;45044;41.572;24.730;2023-05-01T04:10:26;91392.75;;;3.87;100.00
59274;BME280;45044;41.572;24.730;2023-05-01T04:12:53;91407.69;;;3.90;100.00
59274;BME280;45044;41.572;24.730;2023-05-01T04:15:19;91404.31;;;4.02;100.00
59274;BME280;45044;41.572;24.730;2023-05-01T04:17:48;91391.72;;;4.04;100.00
59274;BME280;45044;41.572;24.730;2023-05-01T04:20:15;91414.66;;;4.27;100.00
59274;BME280;45044;41.572;24.730;2023-05-01T04:22:42;91418.97;;;4.35;100.00
59274;BME280;45044;41.572;24.730;2023-05-01T04:25:09;91397.72;;;4.33;100.00
59274;BME280;45044;41.572;24.730;2023-05-01T04:27:36;91417.56;;;4.38;100.00
59274;BME280;45044;41.572;24.730;2023-05-01T04:30:03;91417.03;;;4.32;100.00
59274;BME280;45044;41.572;24.730;2023-05-01T04:32:30;91410.56;;;4.42;100.00
59274;BME280;45044;41.572;24.730;2023-05-01T04:34:57;91401.78;;;4.47;100.00
59274;BME280;45044;41.572;24.730;2023-05-01T04:37:23;91397.28;;;4.60;100.00
59274;BME280;45044;41.572;24.730;2023-05-01T04:39:50;91384.38;;;4.63;100.00
59274;BME280;45044;41.572;24.730;2023-05-01T04:42:17;91398.63;;;4.70;100.00
59274;BME280;45044;41.572;24.730;2023-05-01T04:44:44;91394.09;;;4.66;100.00
59274;BME280;45044;41.572;24.730;2023-05-01T04:47:12;91370.47;;;4.43;100.00
59274;BME280;45044;41.572;24.730;2023-05-01T04:49:39;91396.91;;;5.38;100.00
59274;BME280;45044;41.572;24.730;2023-05-01T04:52:06;91404.19;;;7.51;100.00
59274;BME280;45044;41.572;24.730;2023-05-01T04:54:33;91420.69;;;9.51;100.00
59274;BME280;45044;41.572;24.730;2023-05-01T04:56:59;91410.56;;;11.17;100.00
59274;BME280;45044;41.572;24.730;2023-05-01T04:59:27;91416.84;;;12.54;100.00
59274;BME280;45044;41.572;24.730;2023-05-01T05:01:53;91416.66;;;14.08;100.00
59274;BME280;45044;41.572;24.730;2023-05-01T05:04:20;91422.56;;;14.93;100.00
59274;BME280;45044;41.572;24.730;2023-05-01T05:06:47;91411.59;;;15.23;100.00
59274;BME280;45044;41.572;24.730;2023-05-01T05:09:14;91427.28;;;16.13;92.58
59274;BME280;45044;41.572;24.730;2023-05-01T05:11:45;91420.88;;;16.75;86.39
59274;BME280;45044;41.572;24.730;2023-05-01T05:14:12;91421.78;;;17.26;82.63
59274;BME280;45044;41.572;24.730;2023-05-01T05:16:39;91414.00;;;17.68;78.63
59274;BME280;45044;41.572;24.730;2023-05-01T05:19:06;91419.66;;;18.21;70.10
59274;BME280;45044;41.572;24.730;2023-05-01T05:21:33;91418.06;;;19.09;62.15
59274;BME280;45044;41.572;24.730;2023-05-01T05:24:00;91436.97;;;19.14;65.00
59274;BME280;45044;41.572;24.730;2023-05-01T05:26:27;91433.72;;;19.07;65.85
59274;BME280;45044;41.572;24.730;2023-05-01T05:28:54;91427.16;;;19.11;65.15
59274;BME280;45044;41.572;24.730;2023-05-01T05:31:21;91434.13;;;19.48;63.17
59274;BME280;45044;41.572;24.730;2023-05-01T05:33:49;91423.81;;;20.25;59.56
59274;BME280;45044;41.572;24.730;2023-05-01T05:36:15;91441.84;;;20.56;59.25
59274;BME280;45044;41.572;24.730;2023-05-01T05:38:42;91431.53;;;21.12;54.90
59274;BME280;45044;41.572;24.730;2023-05-01T05:41:09;91433.41;;;21.66;55.57
59274;BME280;45044;41.572;24.730;2023-05-01T05:43:36;91432.13;;;21.80;55.16
59274;BME280;45044;41.572;24.730;2023-05-01T05:46:03;91410.19;;;21.63;55.14
59274;BME280;45044;41.572;24.730;2023-05-01T05:48:30;91442.59;;;22.16;53.20
59274;BME280;45044;41.572;24.730;2023-05-01T05:50:57;91431.03;;;23.03;51.58
59274;BME280;45044;41.572;24.730;2023-05-01T05:53:24;91447.28;;;22.81;50.56
59274;BME280;45044;41.572;24.730;2023-05-01T05:55:52;91439.34;;;23.15;50.63
59274;BME280;45044;41.572;24.730;2023-05-01T05:58:19;91435.47;;;23.16;50.27
59274;BME280;45044;41.572;24.730;2023-05-01T06:00:47;91438.09;;;23.44;47.11
59274;BME280;45044;41.572;24.730;2023-05-01T06:03:15;91433.09;;;23.08;47.49
59274;BME280;45044;41.572;24.730;2023-05-01T06:05:42;91435.25;;;20.92;50.46
59274;BME280;45044;41.572;24.730;2023-05-01T06:08:10;91442.78;;;18.96;55.23
59274;BME280;45044;41.572;24.730;2023-05-01T06:10:43;91443.47;;;18.41;65.51
59274;BME280;45044;41.572;24.730;2023-05-01T06:13:10;91440.50;;;15.65;100.00
59274;BME280;45044;41.572;24.730;2023-05-01T06:15:40;91455.56;;;14.04;100.00
59274;BME280;45044;41.572;24.730;2023-05-01T06:18:07;91450.53;;;14.21;100.00
59274;BME280;45044;41.572;24.730;2023-05-01T06:20:35;91449.13;;;15.97;100.00
59274;BME280;45044;41.572;24.730;2023-05-01T06:23:02;91446.91;;;18.54;91.39
59274;BME280;45044;41.572;24.730;2023-05-01T06:25:29;91437.31;;;19.82;74.16
59274;BME280;45044;41.572;24.730;2023-05-01T06:27:55;91454.66;;;19.99;70.92
59274;BME280;45044;41.572;24.730;2023-05-01T06:30:22;91455.28;;;18.23;84.84
59274;BME280;45044;41.572;24.730;2023-05-01T06:32:49;91452.97;;;18.85;75.17
59274;BME280;45044;41.572;24.730;2023-05-01T06:35:16;91449.66;;;20.02;72.29
59274;BME280;45044;41.572;24.730;2023-05-01T06:37:43;91457.25;;;20.74;71.27
59274;BME280;45044;41.572;24.730;2023-05-01T06:40:10;91457.16;;;19.81;66.44
59274;BME280;45044;41.572;24.730;2023-05-01T06:42:38;91454.00;;;17.07;92.73
59274;BME280;45044;41.572;24.730;2023-05-01T06:45:06;91454.38;;;16.00;100.00
59274;BME280;45044;41.572;24.730;2023-05-01T06:47:34;91451.59;;;15.56;100.00
59274;BME280;45044;41.572;24.730;2023-05-01T06:50:02;91464.81;;;15.01;100.00
59274;BME280;45044;41.572;24.730;2023-05-01T06:52:32;91458.56;;;14.48;100.00
59274;BME280;45044;41.572;24.730;2023-05-01T06:54:59;91459.63;;;14.55;100.00
59274;BME280;45044;41.572;24.730;2023-05-01T06:57:25;91456.25;;;14.51;100.00
59274;BME280;45044;41.572;24.730;2023-05-01T06:59:52;91445.75;;;13.59;100.00
59274;BME280;45044;41.572;24.730;2023-05-01T07:02:20;91466.22;;;14.39;100.00
59274;BME280;45044;41.572;24.730;2023-05-01T07:04:48;91466.06;;;13.65;100.00
59274;BME280;45044;41.572;24.730;2023-05-01T07:07:18;91473.94;;;13.01;100.00
59274;BME280;45044;41.572;24.730;2023-05-01T07:09:45;91457.53;;;12.61;100.00
59274;BME280;45044;41.572;24.730;2023-05-01T07:12:12;91464.66;;;12.67;100.00
59274;BME280;45044;41.572;24.730;2023-05-01T07:14:39;91481.13;;;12.97;100.00
59274;BME280;45044;41.572;24.730;2023-05-01T07:17:07;91482.22;;;13.00;100.00
59274;BME280;45044;41.572;24.730;2023-05-01T07:19:34;91485.38;;;12.69;100.00
59274;BME280;45044;41.572;24.730;2023-05-01T07:22:01;91481.69;;;12.30;100.00
59274;BME280;45044;41.572;24.730;2023-05-01T07:24:30;91493.72;;;12.02;100.00
59274;BME280;45044;41.572;24.730;2023-05-01T07:26:57;91494.13;;;12.07;100.00
59274;BME280;45044;41.572;24.730;2023-05-01T07:29:24;91494.88;;;12.23;100.00
59274;BME280;45044;41.572;24.730;2023-05-01T07:31:50;91464.03;;;12.23;100.00
59274;BME280;45044;41.572;24.730;2023-05-01T07:34:17;91486.22;;;12.29;100.00
59274;BME280;45044;41.572;24.730;2023-05-01T07:36:45;91506.72;;;13.04;100.00
59274;BME280;45044;41.572;24.730;2023-05-01T07:39:12;91498.97;;;13.50;100.00
59274;BME280;45044;41.572;24.730;2023-05-01T07:41:40;91495.06;;;13.73;100.00
59274;BME280;45044;41.572;24.730;2023-05-01T07:44:07;91496.88;;;13.15;100.00
59274;BME280;45044;41.572;24.730;2023-05-01T07:46:33;91501.81;;;13.06;100.00
59274;BME280;45044;41.572;24.730;2023-05-01T07:49:01;91510.19;;;12.90;100.00
59274;BME280;45044;41.572;24.730;2023-05-01T07:51:30;91516.28;;;12.65;100.00
59274;BME280;45044;41.572;24.730;2023-05-01T07:53:58;91500.84;;;12.49;100.00
59274;BME280;45044;41.572;24.730;2023-05-01T07:56:30;91527.22;;;12.45;100.00
59274;BME280;45044;41.572;24.730;2023-05-01T07:58:57;91509.53;;;12.34;100.00
59274;BME280;45044;41.572;24.730;2023-05-01T08:01:24;91526.09;;;12.46;100.00
59274;BME280;45044;41.572;24.730;2023-05-01T08:03:51;91532.84;;;12.62;100.00
59274;BME280;45044;41.572;24.730;2023-05-01T08:06:18;91535.09;;;12.60;100.00
59274;BME280;45044;41.572;24.730;2023-05-01T08:08:44;91513.31;;;12.41;100.00
59274;BME280;45044;41.572;24.730;2023-05-01T08:11:11;91531.38;;;12.39;100.00
59274;BME280;45044;41.572;24.730;2023-05-01T08:13:38;91512.97;;;13.39;100.00
59274;BME280;45044;41.572;24.730;2023-05-01T08:16:05;91519.88;;;15.13;100.00
59274;BME280;45044;41.572;24.730;2023-05-01T08:18:32;91515.09;;;16.43;100.00
59274;BME280;45044;41.572;24.730;2023-05-01T08:20:59;91523.53;;;17.96;100.00
59274;BME280;45044;41.572;24.730;2023-05-01T08:23:26;91528.66;;;19.17;100.00
59274;BME280;45044;41.572;24.730;2023-05-01T08:25:53;91533.44;;;19.22;100.00
59274;BME280;45044;41.572;24.730;2023-05-01T08:28:22;91535.47;;;20.26;77.75
59274;BME280;45044;41.572;24.730;2023-05-01T08:30:48;91535.13;;;19.85;99.61
59274;BME280;45044;41.572;24.730;2023-05-01T08:33:16;91529.28;;;20.16;77.54
59274;BME280;45044;41.572;24.730;2023-05-01T08:35:43;91527.91;;;20.60;71.26
59274;BME280;45044;41.572;24.730;2023-05-01T08:38:10;91506.91;;;20.49;65.73
59274;BME280;45044;41.572;24.730;2023-05-01T08:40:39;91532.53;;;19.42;63.24
59274;BME280;45044;41.572;24.730;2023-05-01T08:43:08;91531.66;;;19.02;60.17
59274;BME280;45044;41.572;24.730;2023-05-01T08:45:35;91534.38;;;18.86;65.54
59274;BME280;45044;41.572;24.730;2023-05-01T08:48:06;91535.56;;;18.98;75.68
59274;BME280;45044;41.572;24.730;2023-05-01T08:50:37;91523.34;;;18.54;67.01
59274;BME280;45044;41.572;24.730;2023-05-01T08:53:05;91527.69;;;18.14;68.88
59274;BME280;45044;41.572;24.730;2023-05-01T08:55:33;91525.28;;;18.53;89.44
59274;BME280;45044;41.572;24.730;2023-05-01T08:58:00;91528.09;;;18.63;91.87
59274;BME280;45044;41.572;24.730;2023-05-01T09:00:30;91542.84;;;19.10;77.32
59274;BME280;45044;41.572;24.730;2023-05-01T09:03:00;91540.78;;;17.71;71.68
59274;BME280;45044;41.572;24.730;2023-05-01T09:05:30;91539.47;;;17.43;72.54
59274;BME280;45044;41.572;24.730;2023-05-01T09:07:58;91540.88;;;17.47;70.15
59274;BME280;45044;41.572;24.730;2023-05-01T09:10:26;91546.75;;;17.18;71.27
59274;BME280;45044;41.572;24.730;2023-05-01T09:12:57;91543.13;;;17.86;76.59
59274;BME280;45044;41.572;24.730;2023-05-01T09:15:27;91534.25;;;17.93;77.94
59274;BME280;45044;41.572;24.730;2023-05-01T09:17:55;91550.28;;;18.06;70.23
59274;BME280;45044;41.572;24.730;2023-05-01T09:20:30;91544.59;;;18.41;71.03
59274;BME280;45044;41.572;24.730;2023-05-01T09:22:57;91560.91;;;18.26;67.13
59274;BME280;45044;41.572;24.730;2023-05-01T09:25:24;91526.34;;;17.52;68.46
59274;BME280;45044;41.572;24.730;2023-05-01T09:27:52;91554.09;;;18.05;66.58
59274;BME280;45044;41.572;24.730;2023-05-01T09:35:47;91541.44;;;17.39;74.33
59274;BME280;45044;41.572;24.730;2023-05-01T09:38:19;91571.47;;;17.15;66.08
59274;BME280;45044;41.572;24.730;2023-05-01T09:40:46;91559.59;;;17.60;71.95
59274;BME280;45044;41.572;24.730;2023-05-01T09:43:23;91533.41;;;17.22;66.39
59274;BME280;45044;41.572;24.730;2023-05-01T09:46:09;91561.16;;;16.97;68.57
59274;BME280;45044;41.572;24.730;2023-05-01T09:48:37;91565.66;;;17.00;68.36
59274;BME280;45044;41.572;24.730;2023-05-01T09:53:47;91548.66;;;17.18;69.53
59274;BME280;45044;41.572;24.730;2023-05-01T09:56:15;91570.97;;;17.00;67.85
59274;BME280;45044;41.572;24.730;2023-05-01T09:58:42;91564.34;;;16.88;79.01
59274;BME280;45044;41.572;24.730;2023-05-01T10:01:10;91575.03;;;16.84;74.46
59274;BME280;45044;41.572;24.730;2023-05-01T10:03:36;91575.28;;;16.46;68.53
59274;BME280;45044;41.572;24.730;2023-05-01T10:06:04;91574.59;;;16.42;77.52
59274;BME280;45044;41.572;24.730;2023-05-01T10:08:47;91588.06;;;16.27;81.44
59274;BME280;45044;41.572;24.730;2023-05-01T10:11:14;91581.16;;;16.33;88.58
59274;BME280;45044;41.572;24.730;2023-05-01T10:13:41;91581.97;;;16.54;78.60
59274;BME280;45044;41.572;24.730;2023-05-01T10:16:27;91553.78;;;16.40;84.38
59274;BME280;45044;41.572;24.730;2023-05-01T10:18:55;91559.66;;;16.51;66.67
59274;BME280;45044;41.572;24.730;2023-05-01T10:21:24;91576.84;;;16.67;76.58
59274;BME280;45044;41.572;24.730;2023-05-01T10:23:51;91577.44;;;16.99;81.06
59274;BME280;45044;41.572;24.730;2023-05-01T10:26:18;91571.06;;;16.72;79.76
59274;BME280;45044;41.572;24.730;2023-05-01T10:28:47;91566.25;;;16.87;70.66
59274;BME280;45044;41.572;24.730;2023-05-01T10:31:15;91553.00;;;17.08;66.00
59274;BME280;45044;41.572;24.730;2023-05-01T10:33:43;91565.03;;;16.48;66.46
59274;BME280;45044;41.572;24.730;2023-05-01T10:36:16;91560.50;;;16.21;66.17
59274;BME280;45044;41.572;24.730;2023-05-01T10:38:45;91552.41;;;16.32;70.50
59274;BME280;45044;41.572;24.730;2023-05-01T10:41:14;91551.13;;;16.40;68.38
59274;BME280;45044;41.572;24.730;2023-05-01T10:43:42;91551.16;;;16.12;65.35
59274;BME280;45044;41.572;24.730;2023-05-01T10:51:23;91545.66;;;15.09;62.43
59274;BME280;45044;41.572;24.730;2023-05-01T10:56:41;91556.06;;;15.24;67.05
59274;BME280;45044;41.572;24.730;2023-05-01T10:59:09;91556.16;;;15.16;71.66
59274;BME280;45044;41.572;24.730;2023-05-01T11:01:40;91547.78;;;15.21;72.59
59274;BME280;45044;41.572;24.730;2023-05-01T11:09:40;91534.47;;;17.04;69.27
59274;BME280;45044;41.572;24.730;2023-05-01T11:12:09;91549.28;;;17.26;62.56
59274;BME280;45044;41.572;24.730;2023-05-01T11:20:12;91551.38;;;17.34;58.72
59274;BME280;45044;41.572;24.730;2023-05-01T11:22:44;91555.16;;;16.93;59.33
59274;BME280;45044;41.572;24.730;2023-05-01T11:27:50;91547.94;;;16.73;61.33
59274;BME280;45044;41.572;24.730;2023-05-01T11:30:18;91553.22;;;16.73;59.17
59274;BME280;45044;41.572;24.730;2023-05-01T11:32:47;91557.41;;;16.50;59.52
59274;BME280;45044;41.572;24.730;2023-05-01T11:35:24;91557.59;;;16.39;62.86
59274;BME280;45044;41.572;24.730;2023-05-01T11:37:55;91557.41;;;16.26;63.93
59274;BME280;45044;41.572;24.730;2023-05-01T11:40:27;91558.25;;;16.43;63.17
59274;BME280;45044;41.572;24.730;2023-05-01T11:43:05;91554.28;;;16.55;62.99
59274;BME280;45044;41.572;24.730;2023-05-01T11:45:36;91543.31;;;16.29;68.72
59274;BME280;45044;41.572;24.730;2023-05-01T11:48:03;91540.78;;;16.46;68.63
59274;BME280;45044;41.572;24.730;2023-05-01T11:50:32;91540.06;;;16.90;68.49
59274;BME280;45044;41.572;24.730;2023-05-01T11:53:02;91522.66;;;17.29;66.16
59274;BME280;45044;41.572;24.730;2023-05-01T11:55:33;91534.16;;;17.22;74.94
59274;BME280;45044;41.572;24.730;2023-05-01T11:58:01;91522.91;;;17.35;62.16
59274;BME280;45044;41.572;24.730;2023-05-01T12:00:32;91518.00;;;16.93;60.36
59274;BME280;45044;41.572;24.730;2023-05-01T12:05:33;91501.09;;;17.03;75.08
59274;BME280;45044;41.572;24.730;2023-05-01T12:08:13;91509.09;;;17.23;72.48
59274;BME280;45044;41.572;24.730;2023-05-01T12:10:42;91504.66;;;17.37;69.74
59274;BME280;45044;41.572;24.730;2023-05-01T12:13:11;91494.88;;;17.14;63.14
59274;BME280;45044;41.572;24.730;2023-05-01T12:15:41;91506.34;;;17.07;69.20
59274;BME280;45044;41.572;24.730;2023-05-01T12:18:08;91505.13;;;16.91;76.37
59274;BME280;45044;41.572;24.730;2023-05-01T12:20:46;91517.97;;;16.72;68.41
59274;BME280;45044;41.572;24.730;2023-05-01T12:23:15;91513.44;;;16.25;71.35
59274;BME280;45044;41.572;24.730;2023-05-01T12:25:43;91517.44;;;16.13;70.41
59274;BME280;45044;41.572;24.730;2023-05-01T12:30:40;91509.03;;;15.90;83.58
59274;BME280;45044;41.572;24.730;2023-05-01T12:33:28;91520.94;;;15.78;100.00
59274;BME280;45044;41.572;24.730;2023-05-01T12:36:08;91508.13;;;15.45;90.43
59274;BME280;45044;41.572;24.730;2023-05-01T12:38:39;91523.19;;;15.52;100.00
59274;BME280;45044;41.572;24.730;2023-05-01T12:41:05;91519.59;;;15.39;100.00
59274;BME280;45044;41.572;24.730;2023-05-01T12:43:36;91502.03;;;15.49;100.00
59274;BME280;45044;41.572;24.730;2023-05-01T12:46:04;91517.25;;;15.44;100.00
59274;BME280;45044;41.572;24.730;2023-05-01T12:48:37;91520.28;;;15.43;100.00
59274;BME280;45044;41.572;24.730;2023-05-01T12:51:04;91529.47;;;15.35;100.00
59274;BME280;45044;41.572;24.730;2023-05-01T12:53:32;91534.84;;;15.27;100.00
59274;BME280;45044;41.572;24.730;2023-05-01T12:55:59;91512.56;;;14.93;100.00
59274;BME280;45044;41.572;24.730;2023-05-01T12:58:37;91572.50;;;14.23;100.00
59274;BME280;45044;41.572;24.730;2023-05-01T13:01:04;91578.69;;;13.19;100.00
59274;BME280;45044;41.572;24.730;2023-05-01T13:03:32;91597.28;;;12.46;100.00
59274;BME280;45044;41.572;24.730;2023-05-01T13:06:03;91590.16;;;12.36;100.00
59274;BME280;45044;41.572;24.730;2023-05-01T13:08:36;91607.06;;;12.27;100.00
59274;BME280;45044;41.572;24.730;2023-05-01T13:11:10;91579.47;;;11.55;100.00
59274;BME280;45044;41.572;24.730;2023-05-01T13:13:39;91614.16;;;11.86;100.00
59274;BME280;45044;41.572;24.730;2023-05-01T13:18:48;91593.72;;;11.40;100.00
59274;BME280;45044;41.572;24.730;2023-05-01T13:21:18;91618.53;;;11.38;100.00
59274;BME280;45044;41.572;24.730;2023-05-01T13:26:30;91610.91;;;11.11;100.00
59274;BME280;45044;41.572;24.730;2023-05-01T13:28:59;91622.88;;;11.05;100.00
59274;BME280;45044;41.572;24.730;2023-05-01T13:31:27;91618.19;;;10.73;100.00
59274;BME280;45044;41.572;24.730;2023-05-01T13:33:57;91612.25;;;10.87;100.00
59274;BME280;45044;41.572;24.730;2023-05-01T13:36:30;91623.28;;;11.07;100.00
59274;BME280;45044;41.572;24.730;2023-05-01T13:38:58;91619.97;;;11.18;100.00
59274;BME280;45044;41.572;24.730;2023-05-01T13:41:26;91616.91;;;11.08;100.00
59274;BME280;45044;41.572;24.730;2023-05-01T13:43:54;91608.72;;;11.28;100.00
59274;BME280;45044;41.572;24.730;2023-05-01T13:46:22;91613.25;;;11.35;100.00
59274;BME280;45044;41.572;24.730;2023-05-01T13:48:50;91606.41;;;11.12;100.00
59274;BME280;45044;41.572;24.730;2023-05-01T13:51:25;91604.53;;;11.20;100.00
59274;BME280;45044;41.572;24.730;2023-05-01T13:53:54;91607.59;;;11.33;100.00
59274;BME280;45044;41.572;24.730;2023-05-01T13:56:21;91601.84;;;11.05;100.00